createdAt,value
2022-11-22T00:01:13.398Z,999.7
2022-11-22T00:02:29.789Z,999.6
2022-11-22T00:03:45.966Z,999.6
2022-11-22T00:05:02.162Z,999.7
2022-11-22T00:06:18.350Z,999.6
2022-11-22T00:07:34.345Z,999.7
2022-11-22T00:08:49.556Z,999.7
2022-11-22T00:10:05.736Z,999.7
2022-11-22T00:11:22.127Z,999.6
2022-11-22T00:12:38.309Z,999.6
2022-11-22T00:13:54.507Z,999.5
2022-11-22T00:15:10.499Z,999.6
2022-11-22T00:16:26.874Z,999.6
2022-11-22T00:17:43.059Z,999.6
2022-11-22T00:18:59.249Z,999.6
2022-11-22T00:20:15.443Z,999.6
2022-11-22T00:21:31.439Z,999.6
2022-11-22T00:22:47.627Z,999.6
2022-11-22T00:24:04.019Z,999.6
2022-11-22T00:25:19.221Z,999.5
2022-11-22T00:26:35.415Z,999.5
2022-11-22T00:27:51.404Z,999.4
2022-11-22T00:29:07.773Z,999.3
2022-11-22T00:30:23.775Z,999.3
2022-11-22T00:31:40.160Z,999.3
2022-11-22T00:32:56.350Z,999.2
2022-11-22T00:34:12.537Z,999.2
2022-11-22T00:35:28.726Z,999.2
2022-11-22T00:36:44.924Z,999.3
2022-11-22T00:38:01.102Z,999.3
2022-11-22T00:39:17.300Z,999.2
2022-11-22T00:40:33.478Z,999.2
2022-11-22T00:41:48.699Z,999.2
2022-11-22T00:43:04.887Z,999.2
2022-11-22T00:44:21.067Z,999.2
2022-11-22T00:45:37.064Z,999.1
2022-11-22T00:46:53.254Z,999.1
2022-11-22T00:48:08.653Z,999.1
2022-11-22T00:49:24.847Z,999.2
2022-11-22T00:50:40.841Z,999.3
2022-11-22T00:51:57.217Z,999.3
2022-11-22T00:53:13.211Z,999.3
2022-11-22T00:54:29.399Z,999.4
2022-11-22T00:55:45.804Z,999.4
2022-11-22T00:57:01.976Z,999.4
2022-11-22T00:58:18.165Z,999.3
2022-11-22T00:59:34.357Z,999.3
2022-11-22T01:00:50.355Z,999.3
2022-11-22T01:02:06.745Z,999.3
2022-11-22T01:03:22.732Z,999.3
2022-11-22T01:04:38.129Z,999.2
2022-11-22T01:05:54.120Z,999.3
2022-11-22T01:07:10.314Z,999.2
2022-11-22T01:08:26.691Z,999.2
2022-11-22T01:09:42.894Z,999.2
2022-11-22T01:10:59.083Z,999.2
2022-11-22T01:12:15.067Z,999.2
2022-11-22T01:13:31.457Z,999.1
2022-11-22T01:14:47.654Z,999.1
2022-11-22T01:16:03.835Z,999
2022-11-22T01:17:20.023Z,999
2022-11-22T01:18:36.008Z,998.9
2022-11-22T01:19:52.410Z,999
2022-11-22T01:21:07.610Z,999
2022-11-22T01:22:23.806Z,998.9
2022-11-22T01:23:39.775Z,999
2022-11-22T01:24:55.959Z,999.1
2022-11-22T01:26:12.360Z,999.1
2022-11-22T01:27:28.548Z,999.1
2022-11-22T01:28:44.734Z,999.1
2022-11-22T01:30:00.932Z,999.1
2022-11-22T01:31:17.118Z,999.1
2022-11-22T01:32:33.301Z,999
2022-11-22T01:33:49.498Z,999
2022-11-22T01:35:05.684Z,999
2022-11-22T01:36:21.872Z,999
2022-11-22T01:37:36.864Z,999
2022-11-22T01:38:53.059Z,999
2022-11-22T01:40:09.460Z,999
2022-11-22T01:41:25.650Z,999
2022-11-22T01:42:41.844Z,999
2022-11-22T01:43:57.812Z,999
2022-11-22T01:45:14.220Z,999
2022-11-22T01:46:30.186Z,999.1
2022-11-22T01:47:46.599Z,999.1
2022-11-22T01:49:02.793Z,999.1
2022-11-22T01:50:18.968Z,999.2
2022-11-22T01:51:35.171Z,999.2
2022-11-22T01:52:51.143Z,999.2
2022-11-22T01:54:06.343Z,999.2
2022-11-22T01:55:22.754Z,999.2
2022-11-22T01:56:38.942Z,999.2
2022-11-22T01:57:55.118Z,999.2
2022-11-22T01:59:11.326Z,999.2
2022-11-22T02:00:27.513Z,999.2
2022-11-22T02:01:43.474Z,999.2
2022-11-22T02:02:59.888Z,999.2
2022-11-22T02:04:15.856Z,999.2
2022-11-22T02:05:32.267Z,999.1
2022-11-22T02:06:48.223Z,999.1
2022-11-22T02:08:04.640Z,999.1
2022-11-22T02:09:20.820Z,999.2
2022-11-22T02:10:36.042Z,999.1
2022-11-22T02:11:52.217Z,999.1
2022-11-22T02:13:08.417Z,999.1
2022-11-22T02:14:24.593Z,999.1
2022-11-22T02:15:40.782Z,999.1
2022-11-22T02:16:56.751Z,999.1
2022-11-22T02:18:13.175Z,999.2
2022-11-22T02:19:29.355Z,999.1
2022-11-22T02:20:45.540Z,999.1
2022-11-22T02:22:01.509Z,999
2022-11-22T02:23:17.928Z,999
2022-11-22T02:24:33.897Z,999
2022-11-22T02:25:50.298Z,999
2022-11-22T02:27:05.506Z,999
2022-11-22T02:28:21.689Z,998.9
2022-11-22T02:29:37.880Z,998.9
2022-11-22T02:30:54.071Z,998.9
2022-11-22T02:32:10.037Z,998.9
2022-11-22T02:33:26.456Z,998.8
2022-11-22T02:34:42.650Z,998.9
2022-11-22T02:35:58.834Z,998.8
2022-11-22T02:37:14.802Z,998.8
2022-11-22T02:38:31.214Z,998.7
2022-11-22T02:39:47.394Z,998.8
2022-11-22T02:41:03.592Z,998.7
2022-11-22T02:42:19.785Z,998.7
2022-11-22T02:43:34.749Z,998.7
2022-11-22T02:44:51.179Z,998.7
2022-11-22T02:46:07.352Z,998.7
2022-11-22T02:47:23.314Z,998.7
2022-11-22T02:48:39.503Z,998.7
2022-11-22T02:49:55.706Z,998.7
2022-11-22T02:51:12.120Z,998.7
2022-11-22T02:52:28.306Z,998.7
2022-11-22T02:53:44.273Z,998.7
2022-11-22T02:55:00.456Z,998.7
2022-11-22T02:56:16.867Z,998.7
2022-11-22T02:57:33.058Z,998.6
2022-11-22T02:58:49.246Z,998.6
2022-11-22T03:00:04.457Z,998.6
2022-11-22T03:01:20.418Z,998.6
2022-11-22T03:02:36.832Z,998.6
2022-11-22T03:03:53.020Z,998.5
2022-11-22T03:05:08.983Z,998.5
2022-11-22T03:06:25.167Z,998.5
2022-11-22T03:07:41.592Z,998.5
2022-11-22T03:08:57.787Z,998.5
2022-11-22T03:10:13.963Z,998.5
2022-11-22T03:11:30.155Z,998.4
2022-11-22T03:12:46.107Z,998.4
2022-11-22T03:14:02.544Z,998.5
2022-11-22T03:15:18.726Z,998.5
2022-11-22T03:16:33.926Z,998.4
2022-11-22T03:17:49.880Z,998.4
2022-11-22T03:19:06.084Z,998.4
2022-11-22T03:20:22.492Z,998.4
2022-11-22T03:21:38.452Z,998.4
2022-11-22T03:22:54.872Z,998.4
2022-11-22T03:24:11.072Z,998.4
2022-11-22T03:25:27.025Z,998.4
2022-11-22T03:26:43.440Z,998.4
2022-11-22T03:27:59.631Z,998.4
2022-11-22T03:29:15.823Z,998.4
2022-11-22T03:30:31.782Z,998.4
2022-11-22T03:31:48.209Z,998.4
2022-11-22T03:33:03.181Z,998.4
2022-11-22T03:34:19.597Z,998.4
2022-11-22T03:35:35.794Z,998.5
2022-11-22T03:36:51.968Z,998.4
2022-11-22T03:38:08.157Z,998.5
2022-11-22T03:39:24.361Z,998.6
2022-11-22T03:40:40.307Z,998.6
2022-11-22T03:41:56.484Z,998.5
2022-11-22T03:43:12.683Z,998.4
2022-11-22T03:44:29.120Z,998.5
2022-11-22T03:45:45.297Z,998.4
2022-11-22T03:47:01.492Z,998.4
2022-11-22T03:48:17.673Z,998.3
2022-11-22T03:49:32.883Z,998.3
2022-11-22T03:50:49.069Z,998.4
2022-11-22T03:52:05.272Z,998.4
2022-11-22T03:53:21.209Z,998.5
2022-11-22T03:54:37.646Z,998.4
2022-11-22T03:55:53.597Z,998.4
2022-11-22T03:57:09.773Z,998.4
2022-11-22T03:58:26.208Z,998.4
2022-11-22T03:59:42.148Z,998.4
2022-11-22T04:00:58.332Z,998.4
2022-11-22T04:02:14.779Z,998.4
2022-11-22T04:03:30.719Z,998.4
2022-11-22T04:04:47.151Z,998.4
2022-11-22T04:06:02.115Z,998.4
2022-11-22T04:07:18.571Z,998.4
2022-11-22T04:08:34.734Z,998.4
2022-11-22T04:09:50.684Z,998.4
2022-11-22T04:11:06.874Z,998.3
2022-11-22T04:12:23.312Z,998.2
2022-11-22T04:13:39.488Z,998.2
2022-11-22T04:14:55.688Z,998.3
2022-11-22T04:16:11.870Z,998.2
2022-11-22T04:17:28.057Z,998.2
2022-11-22T04:18:44.007Z,998.2
2022-11-22T04:20:00.433Z,998.1
2022-11-22T04:21:16.629Z,998.2
2022-11-22T04:22:31.583Z,998.2
2022-11-22T04:23:47.763Z,998.2
2022-11-22T04:25:04.194Z,998.2
2022-11-22T04:26:20.381Z,998.3
2022-11-22T04:27:36.578Z,998.3
2022-11-22T04:28:52.766Z,998.3
2022-11-22T04:30:08.955Z,998.3
2022-11-22T04:31:24.892Z,998.3
2022-11-22T04:32:41.313Z,998.2
2022-11-22T04:33:57.267Z,998.2
2022-11-22T04:35:13.444Z,998.2
2022-11-22T04:36:29.880Z,998.2
2022-11-22T04:37:46.074Z,998.3
2022-11-22T04:39:01.287Z,998.3
2022-11-22T04:40:17.457Z,998.3
2022-11-22T04:41:33.395Z,998.3
2022-11-22T04:42:49.835Z,998.3
2022-11-22T04:44:06.029Z,998.2
2022-11-22T04:45:22.218Z,998.2
2022-11-22T04:46:38.146Z,998.2
2022-11-22T04:47:54.584Z,998.2
2022-11-22T04:49:10.525Z,998.1
2022-11-22T04:50:26.954Z,998.2
2022-11-22T04:51:43.159Z,998.1
2022-11-22T04:52:59.334Z,998.2
2022-11-22T04:54:15.533Z,998.2
2022-11-22T04:55:30.730Z,998.2
2022-11-22T04:56:46.650Z,998.2
2022-11-22T04:58:03.098Z,998.2
2022-11-22T04:59:19.283Z,998.3
2022-11-22T05:00:35.228Z,998.3
2022-11-22T05:01:51.419Z,998.2
2022-11-22T05:03:06.875Z,998.2
2022-11-22T05:04:22.811Z,998.2
2022-11-22T05:05:39.247Z,998.2
2022-11-22T05:06:55.442Z,998.2
2022-11-22T05:08:11.614Z,998.2
2022-11-22T05:09:27.550Z,998.3
2022-11-22T05:10:44.009Z,998.3
2022-11-22T05:11:59.927Z,998.2
2022-11-22T05:13:16.122Z,998.3
2022-11-22T05:14:32.555Z,998.3
2022-11-22T05:15:48.759Z,998.4
2022-11-22T05:17:04.682Z,998.3
2022-11-22T05:18:21.124Z,998.2
2022-11-22T05:19:36.065Z,998.3
2022-11-22T05:20:52.509Z,998.2
2022-11-22T05:22:08.706Z,998.2
2022-11-22T05:23:24.896Z,998.2
2022-11-22T05:24:41.074Z,998.2
2022-11-22T05:25:57.009Z,998.1
2022-11-22T05:27:13.190Z,998
2022-11-22T05:28:29.634Z,998
2022-11-22T05:29:45.558Z,998.1
2022-11-22T05:31:01.744Z,998.2
2022-11-22T05:32:18.085Z,998.2
2022-11-22T05:33:34.537Z,998.2
2022-11-22T05:34:50.721Z,998.1
2022-11-22T05:36:05.925Z,998.3
2022-11-22T05:37:22.104Z,998.2
2022-11-22T05:38:38.020Z,998.2
2022-11-22T05:39:54.474Z,998.2
2022-11-22T05:41:10.663Z,998.2
2022-11-22T05:42:26.582Z,998.2
2022-11-22T05:43:43.049Z,998.1
2022-11-22T05:44:59.232Z,998.1
2022-11-22T05:46:15.426Z,998.1
2022-11-22T05:47:31.609Z,998.1
2022-11-22T05:48:47.794Z,998.1
2022-11-22T05:50:03.719Z,998.1
2022-11-22T05:51:20.180Z,998.1
2022-11-22T05:52:35.378Z,998.1
2022-11-22T05:53:51.553Z,998.2
2022-11-22T05:55:07.477Z,998.2
2022-11-22T05:56:23.933Z,998.2
2022-11-22T05:57:40.121Z,998.2
2022-11-22T05:58:56.303Z,998.2
2022-11-22T06:00:12.220Z,998.2
2022-11-22T06:01:28.691Z,998.1
2022-11-22T06:02:44.875Z,998.2
2022-11-22T06:04:00.787Z,998.2
2022-11-22T06:05:17.251Z,998.1
2022-11-22T06:06:33.438Z,998.2
2022-11-22T06:07:49.621Z,998.2
2022-11-22T06:09:04.825Z,998.2
2022-11-22T06:10:20.733Z,998.2
2022-11-22T06:11:37.193Z,998.2
2022-11-22T06:12:53.112Z,998.2
2022-11-22T06:14:09.576Z,998.2
2022-11-22T06:15:25.759Z,998.2
2022-11-22T06:16:41.949Z,998.3
2022-11-22T06:17:57.869Z,998.3
2022-11-22T06:19:14.316Z,998.3
2022-11-22T06:20:30.515Z,998.4
2022-11-22T06:21:46.426Z,998.4
2022-11-22T06:23:02.881Z,998.4
2022-11-22T06:24:19.078Z,998.4
2022-11-22T06:25:35.264Z,998.4
2022-11-22T06:26:50.465Z,998.4
2022-11-22T06:28:06.370Z,998.4
2022-11-22T06:29:22.848Z,998.4
2022-11-22T06:30:38.752Z,998.4
2022-11-22T06:31:55.220Z,998.4
2022-11-22T06:33:11.116Z,998.4
2022-11-22T06:34:27.584Z,998.4
2022-11-22T06:35:43.497Z,998.5
2022-11-22T06:36:59.970Z,998.5
2022-11-22T06:38:16.152Z,998.5
2022-11-22T06:39:32.341Z,998.5
2022-11-22T06:40:48.531Z,998.5
2022-11-22T06:42:04.723Z,998.5
2022-11-22T06:43:19.648Z,998.5
2022-11-22T06:44:36.113Z,998.6
2022-11-22T06:45:52.296Z,998.6
2022-11-22T06:47:08.479Z,998.6
2022-11-22T06:48:24.664Z,998.6
2022-11-22T06:49:40.861Z,998.6
2022-11-22T06:50:56.767Z,998.6
2022-11-22T06:52:13.235Z,998.6
2022-11-22T06:53:29.134Z,998.7
2022-11-22T06:54:45.314Z,998.7
2022-11-22T06:56:01.792Z,998.7
2022-11-22T06:57:17.688Z,998.7
2022-11-22T06:58:33.889Z,998.6
2022-11-22T06:59:49.370Z,998.6
2022-11-22T07:01:05.274Z,998.6
2022-11-22T07:02:21.754Z,998.6
2022-11-22T07:03:37.650Z,998.6
2022-11-22T07:04:53.840Z,998.6
2022-11-22T07:06:10.013Z,998.7
2022-11-22T07:07:26.211Z,998.6
2022-11-22T07:08:42.693Z,998.6
2022-11-22T07:09:58.865Z,998.7
2022-11-22T07:11:14.763Z,998.7
2022-11-22T07:12:31.252Z,998.6
2022-11-22T07:13:47.139Z,998.7
2022-11-22T07:15:03.629Z,998.6
2022-11-22T07:16:18.833Z,998.7
2022-11-22T07:17:35.002Z,998.8
2022-11-22T07:18:51.192Z,998.8
2022-11-22T07:20:07.088Z,998.8
2022-11-22T07:21:23.295Z,998.8
2022-11-22T07:22:39.763Z,998.9
2022-11-22T07:23:55.955Z,998.8
2022-11-22T07:25:12.127Z,998.9
2022-11-22T07:26:28.040Z,998.9
2022-11-22T07:27:44.507Z,998.9
2022-11-22T07:29:00.411Z,998.8
2022-11-22T07:30:16.590Z,998.9
2022-11-22T07:31:33.066Z,998.9
2022-11-22T07:32:47.982Z,998.9
2022-11-22T07:34:04.454Z,998.9
2022-11-22T07:35:20.655Z,999
2022-11-22T07:36:36.541Z,998.9
2022-11-22T07:37:53.022Z,999.1
2022-11-22T07:39:09.220Z,999
2022-11-22T07:40:25.401Z,999
2022-11-22T07:41:41.587Z,998.9
2022-11-22T07:42:57.779Z,999
2022-11-22T07:44:13.956Z,998.9
2022-11-22T07:45:30.270Z,998.9
2022-11-22T07:46:46.160Z,998.9
2022-11-22T07:48:02.645Z,998.9
2022-11-22T07:49:17.856Z,998.8
2022-11-22T07:50:34.035Z,998.9
2022-11-22T07:53:06.409Z,998.8
2022-11-22T07:54:22.606Z,998.8
2022-11-22T07:55:38.782Z,998.8
2022-11-22T07:56:54.985Z,998.8
2022-11-22T07:58:11.158Z,998.8
2022-11-22T07:59:27.361Z,998.7
2022-11-22T08:00:43.541Z,998.6
2022-11-22T08:01:59.431Z,998.6
2022-11-22T08:03:15.618Z,998.6
2022-11-22T08:04:31.806Z,998.6
2022-11-22T08:05:47.297Z,998.6
2022-11-22T08:07:03.200Z,998.6
2022-11-22T08:08:19.685Z,998.5
2022-11-22T08:09:35.865Z,998.4
2022-11-22T08:10:52.049Z,998.4
2022-11-22T08:12:07.938Z,998.5
2022-11-22T08:13:24.437Z,998.5
2022-11-22T08:14:40.312Z,998.5
2022-11-22T08:15:56.815Z,998.5
2022-11-22T08:17:12.986Z,998.5
2022-11-22T08:18:29.190Z,998.5
2022-11-22T08:19:45.375Z,998.4
2022-11-22T08:21:01.549Z,998.4
2022-11-22T08:22:16.457Z,998.4
2022-11-22T08:23:32.648Z,998.5
2022-11-22T08:24:49.130Z,998.4
2022-11-22T08:26:05.317Z,998.4
2022-11-22T08:27:21.209Z,998.5
2022-11-22T08:28:37.691Z,998.5
2022-11-22T08:29:53.575Z,998.4
2022-11-22T08:31:10.065Z,998.4
2022-11-22T08:32:26.253Z,998.4
2022-11-22T08:33:42.437Z,998.3
2022-11-22T08:34:58.634Z,998.3
2022-11-22T08:36:14.517Z,998.3
2022-11-22T08:37:30.711Z,998.4
2022-11-22T08:38:46.206Z,998.3
2022-11-22T08:40:02.407Z,998.2
2022-11-22T08:41:18.590Z,998.3
2022-11-22T08:42:34.772Z,998.2
2022-11-22T08:43:50.664Z,998.3
2022-11-22T08:45:06.832Z,998.4
2022-11-22T08:46:23.334Z,998.4
2022-11-22T08:47:39.524Z,998.4
2022-11-22T08:48:55.714Z,998.4
2022-11-22T08:50:11.593Z,998.4
2022-11-22T08:51:27.778Z,998.5
2022-11-22T08:52:44.264Z,998.5
2022-11-22T08:54:00.152Z,998.5
2022-11-22T08:55:15.358Z,998.5
2022-11-22T08:56:31.856Z,998.5
2022-11-22T08:57:48.038Z,998.5
2022-11-22T08:59:04.227Z,998.6
2022-11-22T09:00:20.114Z,998.5
2022-11-22T09:01:36.287Z,998.6
2022-11-22T09:02:52.790Z,998.5
2022-11-22T09:04:08.982Z,998.6
2022-11-22T09:05:25.168Z,998.5
2022-11-22T09:06:41.347Z,998.6
2022-11-22T09:07:57.217Z,998.7
2022-11-22T09:09:13.404Z,998.7
2022-11-22T09:10:29.604Z,998.8
2022-11-22T09:11:45.115Z,998.8
2022-11-22T09:13:00.983Z,998.9
2022-11-22T09:14:17.170Z,998.9
2022-11-22T09:15:33.363Z,999
2022-11-22T09:16:49.862Z,999
2022-11-22T09:18:05.073Z,999
2022-11-22T09:19:21.282Z,999
2022-11-22T09:20:37.446Z,999
2022-11-22T09:21:53.325Z,999
2022-11-22T09:23:09.816Z,998.9
2022-11-22T09:24:26.008Z,998.9
2022-11-22T09:25:42.205Z,998.9
2022-11-22T09:26:58.064Z,998.9
2022-11-22T09:28:14.575Z,999
2022-11-22T09:29:30.757Z,999
2022-11-22T09:30:46.630Z,998.9
2022-11-22T09:32:03.140Z,998.9
2022-11-22T09:33:19.321Z,998.9
2022-11-22T09:34:34.525Z,998.8
2022-11-22T09:35:50.404Z,998.9
2022-11-22T09:37:06.897Z,998.9
2022-11-22T09:38:22.778Z,998.8
2022-11-22T09:39:39.276Z,998.8
2022-11-22T09:40:55.148Z,998.8
2022-11-22T09:42:11.660Z,998.8
2022-11-22T09:43:27.512Z,998.9
2022-11-22T09:44:44.000Z,998.9
2022-11-22T09:46:00.211Z,998.9
2022-11-22T09:47:16.084Z,998.9
2022-11-22T09:48:32.601Z,998.9
2022-11-22T09:49:48.782Z,998.9
2022-11-22T09:51:03.657Z,998.9
2022-11-22T09:52:19.840Z,998.9
2022-11-22T09:53:36.034Z,998.9
2022-11-22T09:54:52.548Z,998.8
2022-11-22T09:56:08.739Z,998.9
2022-11-22T09:57:24.929Z,998.9
2022-11-22T09:58:41.114Z,999
2022-11-22T09:59:56.959Z,998.9
2022-11-22T10:01:13.154Z,999
2022-11-22T10:02:29.665Z,998.9
2022-11-22T10:03:45.851Z,999
2022-11-22T10:05:01.726Z,999
2022-11-22T10:06:17.916Z,999
2022-11-22T10:07:33.431Z,999
2022-11-22T10:08:49.299Z,999
2022-11-22T10:10:05.812Z,999
2022-11-22T10:11:21.998Z,999
2022-11-22T10:12:38.183Z,999
2022-11-22T10:13:54.043Z,999
2022-11-22T10:15:10.562Z,998.9
2022-11-22T10:16:26.414Z,999
2022-11-22T10:17:42.938Z,999
2022-11-22T10:18:59.124Z,999.1
2022-11-22T10:20:15.305Z,999
2022-11-22T10:21:31.176Z,999
2022-11-22T10:22:47.690Z,999
2022-11-22T10:24:02.882Z,999
2022-11-22T10:25:19.070Z,999
2022-11-22T10:26:35.262Z,999
2022-11-22T10:27:51.127Z,999
2022-11-22T10:29:07.307Z,998.9
2022-11-22T10:30:23.501Z,999
2022-11-22T10:31:40.007Z,999
2022-11-22T10:32:56.197Z,999
2022-11-22T10:34:12.381Z,999
2022-11-22T10:35:28.571Z,999
2022-11-22T10:36:44.425Z,999
2022-11-22T10:38:00.953Z,999
2022-11-22T10:39:16.000Z,999
2022-11-22T10:40:32.332Z,998.9
2022-11-22T10:41:48.534Z,999
2022-11-22T10:43:04.388Z,998.9
2022-11-22T10:44:20.562Z,999.1
2022-11-22T10:45:36.752Z,999.1
2022-11-22T10:46:52.949Z,999.1
2022-11-22T10:48:09.473Z,999
2022-11-22T10:49:25.657Z,999
2022-11-22T10:50:41.848Z,999
2022-11-22T10:51:57.680Z,998.9
2022-11-22T10:53:14.224Z,998.9
2022-11-22T10:54:30.062Z,998.9
2022-11-22T10:55:46.250Z,998.9
2022-11-22T10:57:01.800Z,998.9
2022-11-22T10:58:17.975Z,998.9
2022-11-22T10:59:33.841Z,998.9
2022-11-22T11:00:50.359Z,998.9
2022-11-22T11:02:06.541Z,998.9
2022-11-22T11:03:22.725Z,998.9
2022-11-22T11:04:38.920Z,999
2022-11-22T11:05:55.107Z,999
2022-11-22T11:07:10.960Z,999
2022-11-22T11:08:27.146Z,999
2022-11-22T11:09:43.328Z,999
2022-11-22T11:10:59.856Z,999
2022-11-22T11:12:16.039Z,999
2022-11-22T11:13:31.246Z,999
2022-11-22T11:14:47.084Z,999
2022-11-22T11:16:03.617Z,999.1
2022-11-22T11:17:19.474Z,999.1
2022-11-22T11:18:35.998Z,999
2022-11-22T11:19:52.180Z,998.9
2022-11-22T11:21:08.024Z,998.9
2022-11-22T11:22:24.206Z,998.9
2022-11-22T11:23:40.752Z,998.9
2022-11-22T11:24:56.587Z,998.9
2022-11-22T11:26:13.129Z,998.8
2022-11-22T11:27:29.302Z,998.9
2022-11-22T11:28:45.494Z,998.9
2022-11-22T11:30:00.705Z,998.8
2022-11-22T11:31:16.892Z,998.8
2022-11-22T11:32:32.728Z,998.8
2022-11-22T11:33:49.265Z,998.8
2022-11-22T11:35:05.446Z,998.7
2022-11-22T11:36:21.628Z,998.8
2022-11-22T11:37:37.826Z,998.7
2022-11-22T11:38:54.010Z,998.8
2022-11-22T11:40:09.853Z,998.7
2022-11-22T11:41:26.381Z,998.7
2022-11-22T11:42:42.584Z,998.8
2022-11-22T11:43:58.754Z,998.7
2022-11-22T11:45:14.956Z,998.7
2022-11-22T11:46:29.804Z,998.7
2022-11-22T11:47:45.991Z,998.8
2022-11-22T11:49:02.531Z,998.7
2022-11-22T11:50:18.371Z,998.7
2022-11-22T11:51:34.903Z,998.7
2022-11-22T11:52:51.095Z,998.7
2022-11-22T11:54:07.282Z,998.7
2022-11-22T11:56:39.642Z,998.8
2022-11-22T11:57:55.830Z,998.8
2022-11-22T11:59:11.683Z,998.8
2022-11-22T12:00:27.852Z,998.8
2022-11-22T12:01:44.000Z,998.8
2022-11-22T12:02:59.254Z,998.8
2022-11-22T12:04:15.793Z,998.8
2022-11-22T12:05:31.632Z,998.8
2022-11-22T12:06:47.810Z,998.8
2022-11-22T12:08:04.360Z,998.8
2022-11-22T12:09:20.546Z,998.8
2022-11-22T12:10:36.380Z,998.8
2022-11-22T12:11:52.563Z,998.8
2022-11-22T12:13:09.099Z,998.8
2022-11-22T12:14:25.284Z,998.7
2022-11-22T12:15:41.122Z,998.8
2022-11-22T12:16:57.671Z,998.8
2022-11-22T12:18:13.845Z,998.7
2022-11-22T12:19:29.050Z,998.8
2022-11-22T12:20:45.245Z,998.7
2022-11-22T12:22:01.074Z,998.7
2022-11-22T12:23:17.625Z,998.9
2022-11-22T12:24:33.441Z,998.8
2022-11-22T12:25:49.638Z,998.8
2022-11-22T12:27:05.815Z,998.8
2022-11-22T12:28:22.365Z,998.7
2022-11-22T12:29:38.000Z,998.7
2022-11-22T12:30:54.387Z,998.7
2022-11-22T12:32:10.567Z,998.7
2022-11-22T12:33:26.750Z,998.7
2022-11-22T12:34:43.306Z,998.7
2022-11-22T12:35:58.156Z,998.6
2022-11-22T12:37:14.335Z,998.6
2022-11-22T12:38:30.880Z,998.6
2022-11-22T12:39:46.704Z,998.5
2022-11-22T12:41:02.890Z,998.5
2022-11-22T12:42:19.446Z,998.4
2022-11-22T12:43:35.644Z,998.4
2022-11-22T12:44:51.828Z,998.3
2022-11-22T12:46:07.647Z,998.4
2022-11-22T12:47:23.842Z,998.4
2022-11-22T12:48:40.028Z,998.4
2022-11-22T12:49:56.565Z,998.5
2022-11-22T12:51:12.762Z,998.6
2022-11-22T12:52:27.589Z,998.7
2022-11-22T12:53:44.160Z,998.7
2022-11-22T12:55:00.344Z,998.7
2022-11-22T12:56:16.169Z,998.7
2022-11-22T12:57:32.357Z,998.7
2022-11-22T12:58:48.537Z,998.7
2022-11-22T13:00:05.085Z,998.7
2022-11-22T13:01:20.914Z,998.7
2022-11-22T13:02:37.106Z,998.7
2022-11-22T13:03:53.279Z,998.7
2022-11-22T13:05:09.473Z,998.7
2022-11-22T13:06:26.028Z,998.6
2022-11-22T13:07:42.208Z,998.6
2022-11-22T13:08:57.046Z,998.6
2022-11-22T13:10:13.244Z,998.5
2022-11-22T13:11:29.792Z,998.5
2022-11-22T13:12:45.977Z,998.5
2022-11-22T13:14:01.799Z,998.5
2022-11-22T13:15:17.984Z,998.5
2022-11-22T13:16:34.544Z,998.5
2022-11-22T13:17:50.731Z,998.4
2022-11-22T13:19:06.912Z,998.4
2022-11-22T13:20:23.093Z,998.4
2022-11-22T13:21:39.295Z,998.4
2022-11-22T13:22:55.467Z,998.4
2022-11-22T13:24:11.296Z,998.5
2022-11-22T13:25:26.504Z,998.4
2022-11-22T13:26:43.050Z,998.4
2022-11-22T13:27:58.877Z,998.3
2022-11-22T13:29:15.066Z,998.4
2022-11-22T13:30:31.241Z,998.4
2022-11-22T13:31:47.816Z,998.4
2022-11-22T13:33:03.025Z,998.4
2022-11-22T13:34:18.819Z,998.4
2022-11-22T13:35:35.392Z,998.4
2022-11-22T13:36:51.586Z,998.5
2022-11-22T13:38:07.761Z,998.4
2022-11-22T13:39:23.587Z,998.5
2022-11-22T13:40:39.767Z,998.5
2022-11-22T13:41:55.943Z,998.5
2022-11-22T13:43:12.505Z,998.5
2022-11-22T13:44:28.693Z,998.5
2022-11-22T13:45:44.515Z,998.6
2022-11-22T13:47:01.084Z,998.6
2022-11-22T13:48:17.260Z,998.7
2022-11-22T13:49:32.095Z,998.6
2022-11-22T13:50:48.287Z,998.6
2022-11-22T13:52:04.481Z,998.6
2022-11-22T13:53:20.659Z,998.5
2022-11-22T13:54:36.847Z,998.6
2022-11-22T13:55:53.416Z,998.5
2022-11-22T13:57:09.227Z,998.5
2022-11-22T13:58:25.797Z,998.5
2022-11-22T13:59:41.595Z,998.5
2022-11-22T14:00:58.167Z,998.5
2022-11-22T14:02:14.358Z,998.5
2022-11-22T14:03:30.552Z,998.4
2022-11-22T14:04:46.351Z,998.4
2022-11-22T14:06:01.944Z,998.3
2022-11-22T14:07:18.127Z,998.3
2022-11-22T14:08:33.927Z,998.4
2022-11-22T14:09:50.505Z,998.4
2022-11-22T14:11:06.688Z,998.3
2022-11-22T14:12:22.495Z,998.4
2022-11-22T14:13:39.065Z,998.4
2022-11-22T14:14:54.891Z,998.4
2022-11-22T14:16:11.460Z,998.4
2022-11-22T14:17:27.249Z,998.4
2022-11-22T14:18:43.455Z,998.4
2022-11-22T14:19:59.640Z,998.4
2022-11-22T14:21:16.217Z,998.4
2022-11-22T14:22:31.411Z,998.3
2022-11-22T14:23:47.600Z,998.3
2022-11-22T14:25:03.796Z,998.5
2022-11-22T14:26:19.986Z,998.5
2022-11-22T14:27:35.795Z,998.6
2022-11-22T14:28:52.362Z,998.5
2022-11-22T14:30:08.553Z,998.6
2022-11-22T14:31:24.737Z,998.6
2022-11-22T14:32:40.542Z,998.6
2022-11-22T14:33:57.114Z,998.6
2022-11-22T14:35:12.917Z,998.6
2022-11-22T14:36:29.492Z,998.6
2022-11-22T14:37:45.298Z,998.6
2022-11-22T14:39:00.502Z,998.5
2022-11-22T14:40:17.081Z,998.6
2022-11-22T14:41:33.272Z,998.6
2022-11-22T14:42:49.076Z,998.6
2022-11-22T14:44:05.644Z,998.6
2022-11-22T14:45:21.439Z,998.6
2022-11-22T14:46:38.028Z,998.5
2022-11-22T14:47:54.204Z,998.5
2022-11-22T14:49:09.999Z,998.6
2022-11-22T14:50:26.188Z,998.5
2022-11-22T14:51:42.376Z,998.6
2022-11-22T14:52:58.971Z,998.5
2022-11-22T14:54:15.158Z,998.6
2022-11-22T14:55:30.363Z,998.6
2022-11-22T14:56:46.152Z,998.6
2022-11-22T14:58:02.738Z,998.6
2022-11-22T14:59:18.925Z,998.6
2022-11-22T15:00:34.731Z,998.6
2022-11-22T15:01:51.310Z,998.6
2022-11-22T15:03:07.110Z,998.6
2022-11-22T15:04:23.683Z,998.6
2022-11-22T15:05:39.482Z,998.6
2022-11-22T15:06:56.064Z,998.6
2022-11-22T15:08:12.245Z,998.6
2022-11-22T15:09:28.044Z,998.6
2022-11-22T15:10:44.240Z,998.6
2022-11-22T15:11:59.830Z,998.7
2022-11-22T15:13:15.621Z,998.6
2022-11-22T15:14:32.201Z,998.6
2022-11-22T15:15:48.011Z,998.6
2022-11-22T15:46:14.977Z,998.8
2022-11-22T15:47:31.160Z,998.8
2022-11-22T15:48:47.355Z,998.9
2022-11-22T15:50:03.529Z,998.9
2022-11-22T15:51:19.317Z,998.9
2022-11-22T15:52:35.511Z,998.9
2022-11-22T15:53:52.116Z,998.9
2022-11-22T15:55:07.885Z,998.9
2022-11-22T15:56:24.485Z,999
2022-11-22T15:57:40.670Z,998.9
2022-11-22T15:58:56.464Z,998.9
2022-11-22T16:00:12.659Z,998.9
2022-11-22T16:01:28.260Z,998.9
2022-11-22T16:02:44.443Z,999
2022-11-22T16:04:00.633Z,999
2022-11-22T16:05:16.429Z,999
2022-11-22T16:06:33.017Z,998.9
2022-11-22T16:07:48.794Z,999
2022-11-22T16:09:04.985Z,999
2022-11-22T16:10:21.579Z,999
2022-11-22T16:11:37.781Z,999.1
2022-11-22T16:12:53.548Z,999
2022-11-22T16:14:09.751Z,999
2022-11-22T16:15:25.940Z,999
2022-11-22T16:16:42.535Z,999
2022-11-22T16:17:57.331Z,999
2022-11-22T16:19:13.918Z,999
2022-11-22T16:20:30.111Z,998.9
2022-11-22T16:21:45.889Z,999
2022-11-22T16:23:02.081Z,998.9
2022-11-22T16:24:18.674Z,998.9
2022-11-22T16:25:34.454Z,998.9
2022-11-22T16:26:50.657Z,998.9
2022-11-22T16:28:07.244Z,998.9
2022-11-22T16:29:23.018Z,998.9
2022-11-22T16:30:39.216Z,998.9
2022-11-22T16:31:55.812Z,999
2022-11-22T16:33:12.000Z,999
2022-11-22T16:34:26.794Z,998.9
2022-11-22T16:35:43.402Z,998.9
2022-11-22T16:36:59.592Z,998.9
2022-11-22T16:38:15.377Z,998.9
2022-11-22T16:39:31.976Z,998.9
2022-11-22T16:40:48.159Z,998.9
2022-11-22T16:42:04.340Z,998.9
2022-11-22T16:43:20.538Z,998.9
2022-11-22T16:44:36.322Z,998.9
2022-11-22T16:45:52.917Z,998.9
2022-11-22T16:47:09.104Z,999
2022-11-22T16:48:25.290Z,998.9
2022-11-22T16:49:41.483Z,999
2022-11-22T16:50:56.269Z,999
2022-11-22T16:52:12.873Z,999
2022-11-22T16:53:28.658Z,999
2022-11-22T16:54:45.257Z,999.1
2022-11-22T16:56:01.446Z,999.1
2022-11-22T16:57:17.216Z,999.2
2022-11-22T16:58:33.824Z,999.2
2022-11-22T16:59:49.592Z,999.3
2022-11-22T17:01:06.211Z,999.3